Time;durP1;ratioP1;P1;durP2;ratioP2;P2;SDS_P1;SDS_P2;PMS_P1;PMS_P2;Temp;Humidity;BMP_temperature;BMP_pressure;BME280_temperature;BME280_humidity;BME280_pressure;Samples;Min_cycle;Max_cycle;Signal;HPM_P1;HPM_P2
2023/06/03 05:23:18;;;;;;;;;19.50;19.50;;;;;;;;5721896;22;11234;-80
2023/06/03 05:25:43;;;;;;;;;23.25;21.75;;;;;;;;6316454;22;12180;-80
2023/06/03 05:28:11;;;;;;;;;24.00;18.25;;;;;;;;6344673;22;8726;-81
2023/06/03 05:30:36;;;;;;;;;21.25;18.25;;;;;;;;6316425;22;8737;-81
2023/06/03 05:33:01;;;;;;;;;25.00;25.00;;;;;;;;6344409;22;11431;-80
2023/06/03 05:35:26;;;;;;;;;27.00;20.75;;;;;;;;6344830;22;8865;-80
2023/06/03 05:37:51;;;;;;;;;24.50;20.25;;;;;;;;6344752;22;8761;-81
2023/06/03 05:40:16;;;;;;;;;17.25;15.75;;;;;;;;6344340;22;9527;-81
2023/06/03 05:42:42;;;;;;;;;20.75;20.25;;;;;;;;6344702;22;8855;-80
2023/06/03 05:45:07;;;;;;;;;22.00;19.75;;;;;;;;6316462;22;8877;-80
2023/06/03 05:47:32;;;;;;;;;22.75;19.75;;;;;;;;6344914;22;8758;-80
2023/06/03 05:49:57;;;;;;;;;19.50;17.50;;;;;;;;6345064;22;8788;-80
2023/06/03 05:52:23;;;;;;;;;20.50;19.50;;;;;;;;6344121;22;8753;-81
2023/06/03 05:54:48;;;;;;;;;15.75;14.50;;;;;;;;6344821;22;8753;-81
2023/06/03 05:57:13;;;;;;;;;19.50;17.25;;;;;;;;6344756;22;8779;-80
2023/06/03 05:59:38;;;;;;;;;26.50;21.00;;;;;;;;6344828;22;8918;-81
2023/06/03 06:02:04;;;;;;;;;20.75;19.00;;;;;;;;6344776;22;8738;-80
2023/06/03 06:04:30;;;;;;;;;16.25;15.50;;;;;;;;6344792;22;8706;-79
2023/06/03 06:06:55;;;;;;;;;22.00;19.00;;;;;;;;6344051;22;11517;-80
2023/06/03 06:09:20;;;;;;;;;17.75;16.50;;;;;;;;6344715;22;8753;-80
2023/06/03 06:11:45;;;;;;;;;19.00;18.25;;;;;;;;6344927;22;8809;-80
2023/06/03 06:14:11;;;;;;;;;21.25;18.00;;;;;;;;6344028;22;8734;-79
2023/06/03 06:16:36;;;;;;;;;15.75;15.50;;;;;;;;6344344;22;8738;-79
2023/06/03 06:19:01;;;;;;;;;21.00;18.25;;;;;;;;6344606;22;9498;-79
2023/06/03 06:21:26;;;;;;;;;22.25;17.00;;;;;;;;6344498;22;8816;-79
2023/06/03 06:23:52;;;;;;;;;27.50;22.00;;;;;;;;6328023;22;10038;-79
2023/06/03 06:26:17;;;;;;;;;18.00;17.00;;;;;;;;6347459;22;8759;-79
2023/06/03 06:28:43;;;;;;;;;19.50;17.50;;;;;;;;6376553;22;8752;-79
2023/06/03 06:31:10;;;;;;;;;17.75;17.00;;;;;;;;6376081;22;9522;-79
2023/06/03 06:33:35;;;;;;;;;18.25;16.25;;;;;;;;6375792;22;9507;-79
2023/06/03 06:36:23;;;;;;;;;23.00;20.00;;;;;;;;6375824;22;11381;-79
2023/06/03 06:38:49;;;;;;;;;19.25;18.25;;;;;;;;6375748;22;8825;-79
2023/06/03 06:41:15;;;;;;;;;20.75;19.00;;;;;;;;6375829;22;11341;-79
2023/06/03 06:43:40;;;;;;;;;20.25;17.00;;;;;;;;6376295;22;8716;-79
2023/06/03 06:46:05;;;;;;;;;21.75;20.00;;;;;;;;6375565;22;12252;-79
2023/06/03 06:48:34;;;;;;;;;20.50;20.25;;;;;;;;6375879;22;9464;-79
2023/06/03 06:50:59;;;;;;;;;18.75;16.75;;;;;;;;6375186;22;8783;-79
2023/06/03 06:53:26;;;;;;;;;20.00;20.00;;;;;;;;6375818;22;12080;-79
2023/06/03 06:56:00;;;;;;;;;18.75;18.50;;;;;;;;6375634;22;8724;-78
2023/06/03 06:58:26;;;;;;;;;16.75;15.75;;;;;;;;6375672;22;11380;-80
2023/06/03 07:00:51;;;;;;;;;17.25;14.75;;;;;;;;6374751;22;11359;-79
2023/06/03 07:03:17;;;;;;;;;19.25;17.50;;;;;;;;6374489;22;12118;-77
2023/06/03 07:05:43;;;;;;;;;15.50;15.00;;;;;;;;6375058;22;8720;-80
2023/06/03 07:08:08;;;;;;;;;18.75;18.00;;;;;;;;6375615;22;11405;-79
2023/06/03 07:10:35;;;;;;;;;15.50;13.50;;;;;;;;6375989;22;8736;-79
2023/06/03 07:13:01;;;;;;;;;18.50;14.75;;;;;;;;6378983;22;8720;-80
2023/06/03 07:15:27;;;;;;;;;17.75;17.75;;;;;;;;6376672;22;11329;-79
2023/06/03 07:17:53;;;;;;;;;17.25;16.75;;;;;;;;6374890;22;11436;-79
2023/06/03 07:20:19;;;;;;;;;17.50;16.00;;;;;;;;6375006;22;8724;-79
2023/06/03 07:22:44;;;;;;;;;14.50;14.25;;;;;;;;6375844;22;11338;-79
2023/06/03 07:25:15;;;;;;;;;14.25;12.25;;;;;;;;6375381;22;11348;-80
2023/06/03 07:27:42;;;;;;;;;17.75;16.50;;;;;;;;6375953;22;9234;-80
2023/06/03 07:30:13;;;;;;;;;18.25;14.75;;;;;;;;6375681;22;11336;-80
2023/06/03 07:32:39;;;;;;;;;17.75;17.50;;;;;;;;6376133;22;11356;-80
2023/06/03 07:35:05;;;;;;;;;14.00;13.25;;;;;;;;6375089;22;11426;-79
2023/06/03 07:37:30;;;;;;;;;17.00;15.75;;;;;;;;6375408;22;8728;-80
2023/06/03 07:39:55;;;;;;;;;18.50;17.00;;;;;;;;6376015;22;8866;-80
2023/06/03 07:42:21;;;;;;;;;17.00;14.00;;;;;;;;6375839;22;8743;-79
2023/06/03 07:44:48;;;;;;;;;18.75;18.00;;;;;;;;6346178;22;9539;-79
2023/06/03 07:47:14;;;;;;;;;16.25;12.25;;;;;;;;6375589;22;11356;-79
2023/06/03 07:49:39;;;;;;;;;15.50;15.25;;;;;;;;6375266;22;11388;-79
2023/06/03 07:52:04;;;;;;;;;14.00;11.00;;;;;;;;6375403;22;11442;-79
2023/06/03 07:54:30;;;;;;;;;17.75;16.50;;;;;;;;6375822;22;8837;-80
2023/06/03 07:56:55;;;;;;;;;16.50;14.75;;;;;;;;6374954;22;8777;-79
2023/06/03 07:59:21;;;;;;;;;16.00;11.75;;;;;;;;6375675;22;8851;-78
2023/06/03 08:01:50;;;;;;;;;14.00;12.00;;;;;;;;6374838;22;8747;-74
2023/06/03 08:04:34;;;;;;;;;15.75;14.50;;;;;;;;6375474;22;8735;-82
2023/06/03 08:07:00;;;;;;;;;19.00;16.25;;;;;;;;6347014;22;11369;-74
2023/06/03 08:09:26;;;;;;;;;18.00;15.75;;;;;;;;6347065;22;11376;-83
2023/06/03 08:11:51;;;;;;;;;16.25;14.75;;;;;;;;6376441;22;11437;-75
2023/06/03 08:14:18;;;;;;;;;14.00;12.25;;;;;;;;6374967;22;8770;-76
2023/06/03 08:16:43;;;;;;;;;14.00;13.25;;;;;;;;6374724;22;8700;-81
2023/06/03 08:19:11;;;;;;;;;16.00;14.00;;;;;;;;6375673;22;11542;-72
2023/06/03 08:21:37;;;;;;;;;17.75;11.75;;;;;;;;6375292;22;8705;-79
2023/06/03 08:24:03;;;;;;;;;12.25;11.50;;;;;;;;6374254;22;11367;-81
2023/06/03 08:26:28;;;;;;;;;14.00;12.25;;;;;;;;6375250;22;11481;-80
2023/06/03 08:28:53;;;;;;;;;14.00;13.00;;;;;;;;6375235;22;8752;-77
2023/06/03 08:31:18;;;;;;;;;15.25;13.00;;;;;;;;6374730;22;8805;-74
2023/06/03 08:33:43;;;;;;;;;11.00;11.00;;;;;;;;6375412;22;8813;-72
2023/06/03 08:36:09;;;;;;;;;12.50;12.50;;;;;;;;6375273;22;8839;-73
2023/06/03 08:38:34;;;;;;;;;15.00;11.50;;;;;;;;6375018;22;8833;-72
2023/06/03 08:40:59;;;;;;;;;14.25;12.25;;;;;;;;6375431;22;8755;-81
2023/06/03 08:43:27;;;;;;;;;15.25;14.50;;;;;;;;6375405;22;8728;-78
2023/06/03 08:45:55;;;;;;;;;12.50;10.00;;;;;;;;6374608;22;8735;-73
2023/06/03 08:48:36;;;;;;;;;12.50;12.25;;;;;;;;6374943;22;11382;-74
2023/06/03 08:51:05;;;;;;;;;14.00;12.00;;;;;;;;6375302;22;12116;-81
2023/06/03 08:53:50;;;;;;;;;10.75;9.75;;;;;;;;6375226;22;11439;-83
2023/06/03 08:56:16;;;;;;;;;14.00;11.00;;;;;;;;6375716;22;11363;-71
2023/06/03 08:58:46;;;;;;;;;9.75;9.00;;;;;;;;6376143;22;11343;-71
2023/06/03 09:01:11;;;;;;;;;11.50;11.50;;;;;;;;6375659;22;11317;-76
2023/06/03 09:03:38;;;;;;;;;12.00;11.75;;;;;;;;6373567;22;11365;-72
2023/06/03 09:06:04;;;;;;;;;13.50;13.50;;;;;;;;6375445;22;8720;-73
2023/06/03 09:08:29;;;;;;;;;12.00;9.75;;;;;;;;6375287;22;11370;-74
2023/06/03 09:10:55;;;;;;;;;11.50;9.75;;;;;;;;6376420;22;8748;-73
2023/06/03 09:13:21;;;;;;;;;14.00;13.25;;;;;;;;6375976;22;8762;-74
2023/06/03 09:15:46;;;;;;;;;13.75;10.25;;;;;;;;6375898;22;8736;-74
2023/06/03 09:18:13;;;;;;;;;13.50;9.50;;;;;;;;6375939;22;8748;-75
2023/06/03 09:20:38;;;;;;;;;13.75;13.00;;;;;;;;6376193;22;8832;-75
2023/06/03 09:23:03;;;;;;;;;10.00;8.25;;;;;;;;6375921;22;11371;-74
2023/06/03 09:25:29;;;;;;;;;9.00;9.00;;;;;;;;6376244;22;8736;-73
2023/06/03 09:27:54;;;;;;;;;9.50;9.50;;;;;;;;6376062;22;8760;-73
2023/06/03 09:30:19;;;;;;;;;12.00;12.00;;;;;;;;6375174;22;8744;-72
2023/06/03 09:32:44;;;;;;;;;13.50;11.50;;;;;;;;6346192;22;9895;-70
2023/06/03 09:35:10;;;;;;;;;12.00;11.50;;;;;;;;6374577;22;8840;-76
2023/06/03 09:37:36;;;;;;;;;11.00;9.25;;;;;;;;6375507;22;8785;-70
2023/06/03 09:40:05;;;;;;;;;11.00;10.50;;;;;;;;6375084;22;11447;-78
2023/06/03 09:42:41;;;;;;;;;13.50;10.75;;;;;;;;6375924;22;8833;-73
2023/06/03 09:45:06;;;;;;;;;12.00;9.00;;;;;;;;6345771;22;11363;-73
2023/06/03 09:47:39;;;;;;;;;16.75;12.75;;;;;;;;6375505;22;11331;-82
2023/06/03 09:50:06;;;;;;;;;10.50;9.00;;;;;;;;6375212;22;9951;-82
2023/06/03 09:52:32;;;;;;;;;12.75;12.25;;;;;;;;6374851;22;11310;-77
2023/06/03 09:55:01;;;;;;;;;13.25;10.25;;;;;;;;6375439;22;11368;-78
2023/06/03 09:57:27;;;;;;;;;10.25;9.50;;;;;;;;6375446;22;8732;-77
2023/06/03 10:00:02;;;;;;;;;13.00;11.25;;;;;;;;6375375;22;11398;-77
2023/06/03 10:02:27;;;;;;;;;5.75;5.75;;;;;;;;6374837;22;8716;-78
2023/06/03 10:04:52;;;;;;;;;15.25;11.75;;;;;;;;6374614;22;11385;-80
2023/06/03 10:07:17;;;;;;;;;12.50;10.75;;;;;;;;6374171;22;9516;-83
2023/06/03 10:09:45;;;;;;;;;13.50;10.00;;;;;;;;6375456;22;8763;-80
2023/06/03 10:12:10;;;;;;;;;11.50;10.25;;;;;;;;6374726;22;9504;-81
2023/06/03 10:14:43;;;;;;;;;12.25;10.75;;;;;;;;6375152;22;11371;-77
2023/06/03 10:17:09;;;;;;;;;12.25;10.50;;;;;;;;6374813;22;8724;-79
2023/06/03 10:19:39;;;;;;;;;10.50;9.50;;;;;;;;6374643;22;11394;-79
2023/06/03 10:22:05;;;;;;;;;16.50;13.50;;;;;;;;6374756;22;11305;-78
2023/06/03 10:24:31;;;;;;;;;9.75;9.75;;;;;;;;6375031;22;11341;-80
2023/06/03 10:26:56;;;;;;;;;9.50;8.00;;;;;;;;6375050;22;11394;-73
2023/06/03 10:29:22;;;;;;;;;11.75;9.75;;;;;;;;6375487;22;11432;-72
2023/06/03 10:31:49;;;;;;;;;11.25;11.25;;;;;;;;6375282;22;8817;-75
2023/06/03 10:34:15;;;;;;;;;7.25;7.25;;;;;;;;6347049;22;8736;-77
2023/06/03 10:36:42;;;;;;;;;21.00;16.00;;;;;;;;6375013;22;11430;-75
2023/06/03 10:39:10;;;;;;;;;13.75;13.00;;;;;;;;6375421;22;11373;-77
2023/06/03 10:41:39;;;;;;;;;10.25;10.25;;;;;;;;6375286;22;8733;-78
2023/06/03 10:44:04;;;;;;;;;14.50;12.50;;;;;;;;6375948;22;10996;-83
2023/06/03 10:46:30;;;;;;;;;11.50;9.50;;;;;;;;6376119;22;11240;-83
2023/06/03 10:48:55;;;;;;;;;14.00;11.00;;;;;;;;6376017;22;8751;-78
2023/06/03 10:51:44;;;;;;;;;13.25;12.75;;;;;;;;6375911;22;8752;-81
2023/06/03 10:54:30;;;;;;;;;11.75;11.25;;;;;;;;6375459;22;8744;-81
2023/06/03 10:57:03;;;;;;;;;10.25;9.25;;;;;;;;6294251;22;10850;-78
2023/06/03 10:59:37;;;;;;;;;9.00;8.75;;;;;;;;6375969;22;10888;-82
2023/06/03 11:02:03;;;;;;;;;9.00;6.25;;;;;;;;6375600;22;11032;-78
2023/06/03 11:04:30;;;;;;;;;9.25;9.25;;;;;;;;6375726;22;10906;-77
2023/06/03 11:06:56;;;;;;;;;13.50;12.75;;;;;;;;6375903;22;8708;-78
2023/06/03 11:09:31;;;;;;;;;12.50;11.00;;;;;;;;6375915;22;10892;-81
2023/06/03 11:12:04;;;;;;;;;6.25;4.25;;;;;;;;6375765;22;8889;-85
2023/06/03 11:14:29;;;;;;;;;8.50;8.50;;;;;;;;6376077;22;10783;-84
2023/06/03 11:16:57;;;;;;;;;12.80;9.80;;;;;;;;6376205;22;11324;-83
2023/06/03 11:19:40;;;;;;;;;9.50;9.50;;;;;;;;6375978;22;8806;-83
2023/06/03 11:22:07;;;;;;;;;9.75;8.50;;;;;;;;6375506;22;11528;-79
2023/06/03 11:24:38;;;;;;;;;10.50;10.50;;;;;;;;6374919;22;11370;-76
2023/06/03 11:27:09;;;;;;;;;10.50;9.50;;;;;;;;6375074;22;11292;-80
2023/06/03 11:29:43;;;;;;;;;9.75;9.00;;;;;;;;6375863;22;11326;-79
2023/06/03 11:32:11;;;;;;;;;7.75;7.75;;;;;;;;6375667;22;11384;-81
2023/06/03 11:34:36;;;;;;;;;8.50;8.50;;;;;;;;6375484;22;11345;-78
2023/06/03 11:37:02;;;;;;;;;2.50;2.50;;;;;;;;6376309;22;11410;-74
2023/06/03 11:39:27;;;;;;;;;10.75;9.75;;;;;;;;6375405;22;9588;-75
2023/06/03 11:41:59;;;;;;;;;9.75;8.75;;;;;;;;6347260;22;8783;-80
2023/06/03 11:44:24;;;;;;;;;8.75;8.75;;;;;;;;6376128;22;8754;-82
2023/06/03 11:46:52;;;;;;;;;11.75;8.25;;;;;;;;6375564;22;11147;-82
2023/06/03 11:49:19;;;;;;;;;9.50;8.50;;;;;;;;6375484;22;8720;-79
2023/06/03 11:51:45;;;;;;;;;10.00;10.00;;;;;;;;6375641;22;12160;-76
2023/06/03 11:54:11;;;;;;;;;4.00;4.00;;;;;;;;6374499;22;11416;-79
2023/06/03 11:56:46;;;;;;;;;10.50;8.00;;;;;;;;6375691;22;11025;-79
2023/06/03 11:59:12;;;;;;;;;10.50;8.25;;;;;;;;6373731;22;8842;-75
2023/06/03 12:01:52;;;;;;;;;10.25;9.75;;;;;;;;6375355;22;11844;-80
2023/06/03 12:04:19;;;;;;;;;10.25;10.25;;;;;;;;6375997;22;11172;-80
2023/06/03 12:06:44;;;;;;;;;11.75;9.75;;;;;;;;6375678;22;11045;-78
2023/06/03 12:09:09;;;;;;;;;9.25;8.50;;;;;;;;6374891;22;11329;-77
2023/06/03 12:11:40;;;;;;;;;8.50;8.50;;;;;;;;6375146;22;8774;-77
2023/06/03 12:14:05;;;;;;;;;13.25;11.00;;;;;;;;6374245;22;8746;-77
2023/06/03 12:16:32;;;;;;;;;12.50;9.75;;;;;;;;6375358;22;11010;-77
2023/06/03 12:19:02;;;;;;;;;7.25;7.25;;;;;;;;6375145;22;8740;-77
2023/06/03 12:21:29;;;;;;;;;4.50;4.50;;;;;;;;6375214;22;11178;-77
2023/06/03 12:23:54;;;;;;;;;9.00;8.00;;;;;;;;6374904;22;10966;-78
2023/06/03 12:26:20;;;;;;;;;6.50;6.50;;;;;;;;6346738;22;10893;-77
2023/06/03 12:28:46;;;;;;;;;10.75;10.25;;;;;;;;6375585;22;8854;-77
2023/06/03 12:31:14;;;;;;;;;16.75;16.75;;;;;;;;6373972;22;8716;-76
2023/06/03 12:33:40;;;;;;;;;9.75;8.00;;;;;;;;6374881;22;11388;-77
2023/06/03 12:36:05;;;;;;;;;8.75;8.25;;;;;;;;6374997;22;11357;-77
2023/06/03 12:38:31;;;;;;;;;10.00;8.75;;;;;;;;6374102;22;11349;-77
2023/06/03 12:41:08;;;;;;;;;9.25;7.00;;;;;;;;6374628;22;8867;-77
2023/06/03 12:43:34;;;;;;;;;12.75;11.75;;;;;;;;6347229;22;9551;-77
2023/06/03 12:46:18;;;;;;;;;8.50;8.50;;;;;;;;6375206;22;11007;-77
2023/06/03 12:48:44;;;;;;;;;8.00;8.00;;;;;;;;6346791;22;8770;-78
2023/06/03 12:51:26;;;;;;;;;9.00;9.00;;;;;;;;6374751;22;12097;-78
2023/06/03 12:53:55;;;;;;;;;8.75;8.75;;;;;;;;6375015;22;11178;-77
2023/06/03 12:56:20;;;;;;;;;10.00;9.00;;;;;;;;6373642;22;11005;-77
2023/06/03 12:58:45;;;;;;;;;11.50;10.00;;;;;;;;6375005;22;11026;-78
2023/06/03 13:01:11;;;;;;;;;11.50;11.25;;;;;;;;6375079;22;8759;-77
2023/06/03 13:03:36;;;;;;;;;7.25;6.50;;;;;;;;6375688;22;9472;-78
2023/06/03 13:06:01;;;;;;;;;10.75;9.75;;;;;;;;6375189;22;8740;-78
2023/06/03 13:08:26;;;;;;;;;9.00;9.00;;;;;;;;6374669;22;8798;-78
2023/06/03 13:10:52;;;;;;;;;7.00;7.00;;;;;;;;6375118;22;8752;-77
2023/06/03 13:13:17;;;;;;;;;6.00;6.00;;;;;;;;6374370;22;8752;-78
2023/06/03 13:15:42;;;;;;;;;7.50;7.50;;;;;;;;6374829;22;8786;-78
2023/06/03 13:18:08;;;;;;;;;12.25;11.00;;;;;;;;6374950;22;8874;-78
2023/06/03 13:20:33;;;;;;;;;12.75;12.75;;;;;;;;6375063;22;9523;-79
2023/06/03 13:22:58;;;;;;;;;10.50;9.25;;;;;;;;6374188;22;8747;-78
2023/06/03 13:25:23;;;;;;;;;12.75;8.25;;;;;;;;6346304;22;8783;-79
2023/06/03 13:27:48;;;;;;;;;9.25;8.00;;;;;;;;6374009;22;8881;-79
2023/06/03 13:30:14;;;;;;;;;9.00;9.00;;;;;;;;6346439;22;8784;-78
2023/06/03 13:32:39;;;;;;;;;7.25;6.75;;;;;;;;6374732;22;8744;-77
2023/06/03 13:35:05;;;;;;;;;12.75;10.25;;;;;;;;6374524;22;8823;-78
2023/06/03 13:37:30;;;;;;;;;10.75;9.00;;;;;;;;6374406;22;8752;-78
2023/06/03 13:39:55;;;;;;;;;7.50;7.50;;;;;;;;6374727;22;8775;-78
2023/06/03 13:42:20;;;;;;;;;8.75;8.75;;;;;;;;6375154;22;8959;-76
2023/06/03 13:44:46;;;;;;;;;8.00;8.00;;;;;;;;6376712;22;8847;-81
2023/06/03 13:47:11;;;;;;;;;11.50;9.00;;;;;;;;6347836;22;9504;-84
2023/06/03 13:49:36;;;;;;;;;9.25;8.00;;;;;;;;6376267;22;8767;-84
2023/06/03 13:52:01;;;;;;;;;8.25;8.25;;;;;;;;6379412;22;8944;-84
2023/06/03 13:54:27;;;;;;;;;9.00;6.50;;;;;;;;6385235;22;8840;-81
2023/06/03 13:56:55;;;;;;;;;3.75;3.50;;;;;;;;6376689;22;8752;-81
2023/06/03 13:59:21;;;;;;;;;9.75;9.75;;;;;;;;6376007;22;8732;-83
2023/06/03 14:01:46;;;;;;;;;7.00;6.75;;;;;;;;6375876;22;11593;-82
2023/06/03 14:04:12;;;;;;;;;9.25;8.25;;;;;;;;6376305;22;10942;-81
2023/06/03 14:06:37;;;;;;;;;8.00;8.00;;;;;;;;6376138;22;8760;-83
2023/06/03 14:09:03;;;;;;;;;3.75;3.75;;;;;;;;6376483;22;8882;-81
2023/06/03 14:11:28;;;;;;;;;7.25;7.25;;;;;;;;6376123;22;8720;-82
2023/06/03 14:13:53;;;;;;;;;8.50;8.50;;;;;;;;6376339;22;10945;-85
2023/06/03 14:16:22;;;;;;;;;9.75;8.75;;;;;;;;6377455;22;8752;-83
2023/06/03 14:18:47;;;;;;;;;6.50;6.25;;;;;;;;6376528;22;8779;-83
2023/06/03 14:21:12;;;;;;;;;6.75;6.75;;;;;;;;6376594;22;10950;-84
2023/06/03 14:23:37;;;;;;;;;8.75;8.75;;;;;;;;6375808;22;8862;-85
2023/06/03 14:26:03;;;;;;;;;9.25;8.50;;;;;;;;6376663;22;8775;-86
2023/06/03 14:28:28;;;;;;;;;7.25;7.00;;;;;;;;6376089;22;8766;-89
2023/06/03 14:30:54;;;;;;;;;9.50;9.50;;;;;;;;6376912;22;8752;-68
2023/06/03 14:33:23;;;;;;;;;9.00;8.75;;;;;;;;6375817;22;8831;-72
2023/06/03 14:35:48;;;;;;;;;8.00;8.00;;;;;;;;6375590;22;8728;-72
2023/06/03 14:38:15;;;;;;;;;11.00;9.50;;;;;;;;6375369;22;11132;-70
2023/06/03 14:40:40;;;;;;;;;7.75;6.25;;;;;;;;6375378;22;8736;-70
2023/06/03 14:43:05;;;;;;;;;8.25;8.25;;;;;;;;6375588;22;10867;-70
2023/06/03 14:45:30;;;;;;;;;7.00;5.75;;;;;;;;6375322;22;9503;-70
2023/06/03 14:47:55;;;;;;;;;9.50;8.00;;;;;;;;6375897;22;8851;-70
2023/06/03 14:50:21;;;;;;;;;10.25;10.25;;;;;;;;6375795;22;8790;-69
2023/06/03 14:52:46;;;;;;;;;6.25;6.25;;;;;;;;6375248;22;8887;-70
2023/06/03 14:55:11;;;;;;;;;11.75;6.75;;;;;;;;6374744;22;8798;-69
2023/06/03 14:57:36;;;;;;;;;8.75;7.25;;;;;;;;6376096;22;8760;-70
2023/06/03 15:00:02;;;;;;;;;6.25;6.25;;;;;;;;6347621;22;8881;-70
2023/06/03 15:02:27;;;;;;;;;8.00;8.00;;;;;;;;6375500;22;8753;-70
2023/06/03 15:04:52;;;;;;;;;7.75;7.75;;;;;;;;6374799;22;8759;-70
2023/06/03 15:07:17;;;;;;;;;7.00;7.00;;;;;;;;6375308;22;9480;-70
2023/06/03 15:09:43;;;;;;;;;7.00;7.00;;;;;;;;6375638;22;8756;-70
2023/06/03 15:12:08;;;;;;;;;5.50;5.50;;;;;;;;6375648;22;8744;-69
2023/06/03 15:14:33;;;;;;;;;9.25;8.75;;;;;;;;6375730;22;8782;-72
2023/06/03 15:16:59;;;;;;;;;8.25;7.25;;;;;;;;6375402;22;8774;-70
2023/06/03 15:19:24;;;;;;;;;7.00;7.00;;;;;;;;6375681;22;8826;-73
2023/06/03 15:21:49;;;;;;;;;7.50;6.75;;;;;;;;6375317;22;8764;-72
2023/06/03 15:24:14;;;;;;;;;7.50;6.00;;;;;;;;6375127;22;8779;-69
2023/06/03 15:26:41;;;;;;;;;6.00;4.50;;;;;;;;6375679;22;8803;-72
2023/06/03 15:29:06;;;;;;;;;8.00;8.00;;;;;;;;6375723;22;8839;-72
2023/06/03 15:31:31;;;;;;;;;8.00;7.00;;;;;;;;6375559;22;11097;-71
2023/06/03 15:33:57;;;;;;;;;7.50;7.50;;;;;;;;6375620;22;8763;-70
2023/06/03 15:36:22;;;;;;;;;8.00;6.00;;;;;;;;6375463;22;9125;-70
2023/06/03 15:38:47;;;;;;;;;5.25;5.25;;;;;;;;6375891;22;8756;-70
2023/06/03 15:41:12;;;;;;;;;10.00;5.25;;;;;;;;6375421;22;9621;-71
2023/06/03 15:43:37;;;;;;;;;4.50;4.50;;;;;;;;6375711;22;9473;-72
2023/06/03 15:46:03;;;;;;;;;4.00;4.00;;;;;;;;6375435;22;8866;-71
2023/06/03 15:48:28;;;;;;;;;5.25;5.00;;;;;;;;6375473;22;8755;-72
2023/06/03 15:50:53;;;;;;;;;5.75;5.75;;;;;;;;6375263;22;8848;-71
2023/06/03 15:53:19;;;;;;;;;6.75;6.75;;;;;;;;6375439;22;8756;-70
2023/06/03 15:55:45;;;;;;;;;6.25;6.25;;;;;;;;6375924;22;8772;-71
2023/06/03 15:58:10;;;;;;;;;6.25;5.00;;;;;;;;6375575;22;8728;-71
2023/06/03 16:00:36;;;;;;;;;9.25;6.75;;;;;;;;6375426;22;10873;-71
2023/06/03 16:03:02;;;;;;;;;7.00;7.00;;;;;;;;6375446;22;8740;-71
2023/06/03 16:05:28;;;;;;;;;6.75;4.25;;;;;;;;6374088;22;10665;-72
2023/06/03 16:07:53;;;;;;;;;7.00;5.50;;;;;;;;6375630;22;9480;-72
2023/06/03 16:10:18;;;;;;;;;6.00;4.00;;;;;;;;6346739;22;9969;-71
2023/06/03 16:12:44;;;;;;;;;5.00;5.00;;;;;;;;6375640;22;8752;-72
2023/06/03 16:15:09;;;;;;;;;3.00;3.00;;;;;;;;6375028;22;8788;-72
2023/06/03 16:17:34;;;;;;;;;8.00;5.25;;;;;;;;6375281;22;8771;-72
2023/06/03 16:20:00;;;;;;;;;5.50;3.50;;;;;;;;6375164;22;8759;-72
2023/06/03 16:22:25;;;;;;;;;3.00;3.00;;;;;;;;6375224;22;8756;-72
2023/06/03 16:24:50;;;;;;;;;7.00;7.00;;;;;;;;6374881;22;8774;-72
2023/06/03 16:27:15;;;;;;;;;2.50;2.50;;;;;;;;6375080;22;8760;-72
2023/06/03 16:29:41;;;;;;;;;4.25;3.25;;;;;;;;6375076;22;8791;-76
2023/06/03 16:32:06;;;;;;;;;5.25;5.00;;;;;;;;6375223;22;8756;-68
2023/06/03 16:34:31;;;;;;;;;5.50;5.25;;;;;;;;6375020;22;8755;-72
2023/06/03 16:36:57;;;;;;;;;6.75;6.00;;;;;;;;6375495;22;8748;-73
2023/06/03 16:39:22;;;;;;;;;5.25;5.25;;;;;;;;6374861;22;8862;-72
2023/06/03 16:41:47;;;;;;;;;6.50;6.50;;;;;;;;6375486;22;8788;-77
2023/06/03 16:44:13;;;;;;;;;5.00;5.00;;;;;;;;6347049;22;8747;-72
2023/06/03 16:46:38;;;;;;;;;4.25;4.25;;;;;;;;6374545;22;9504;-73
2023/06/03 16:49:03;;;;;;;;;6.00;5.00;;;;;;;;6374898;22;9519;-71
2023/06/03 16:51:28;;;;;;;;;8.25;8.25;;;;;;;;6374912;22;9559;-70
2023/06/03 16:53:56;;;;;;;;;6.00;6.00;;;;;;;;6374768;22;9967;-70
2023/06/03 16:56:21;;;;;;;;;5.75;5.75;;;;;;;;6374963;22;8748;-71
2023/06/03 16:58:47;;;;;;;;;11.00;10.50;;;;;;;;6374562;22;10814;-71
2023/06/03 17:01:12;;;;;;;;;9.00;9.00;;;;;;;;6374878;22;8837;-73
2023/06/03 17:03:38;;;;;;;;;12.25;12.25;;;;;;;;6374913;22;9611;-73
2023/06/03 17:06:03;;;;;;;;;17.75;15.50;;;;;;;;6375108;22;8735;-73
2023/06/03 17:08:29;;;;;;;;;81.33;76.67;;;;;;;;6374477;22;11383;-73
2023/06/03 17:10:54;;;;;;;;;13.25;12.75;;;;;;;;6374865;22;8750;-73
2023/06/03 17:13:19;;;;;;;;;6.75;5.00;;;;;;;;6374995;22;8860;-74
2023/06/03 17:15:44;;;;;;;;;78.67;73.33;;;;;;;;6374877;22;8771;-76
2023/06/03 17:18:10;;;;;;;;;59.00;48.75;;;;;;;;6376148;22;8744;-76
2023/06/03 17:20:35;;;;;;;;;27.25;26.50;;;;;;;;6376207;22;8748;-76
2023/06/03 17:23:00;;;;;;;;;44.50;38.25;;;;;;;;6372685;22;8960;-78
2023/06/03 17:25:26;;;;;;;;;9.50;9.50;;;;;;;;6374437;22;9567;-78
2023/06/03 17:27:52;;;;;;;;;9.25;9.00;;;;;;;;6373918;22;8723;-79
2023/06/03 17:30:17;;;;;;;;;7.50;7.50;;;;;;;;6376814;22;8736;-79
2023/06/03 17:32:42;;;;;;;;;8.50;6.75;;;;;;;;6376338;22;8743;-77
2023/06/03 17:35:07;;;;;;;;;7.00;7.00;;;;;;;;6376171;22;9464;-80
2023/06/03 17:37:33;;;;;;;;;7.00;7.00;;;;;;;;6376057;22;9493;-80
2023/06/03 17:39:58;;;;;;;;;9.75;5.50;;;;;;;;6376294;22;8850;-78
2023/06/03 17:42:23;;;;;;;;;8.00;8.00;;;;;;;;6375600;22;9461;-73
2023/06/03 17:44:48;;;;;;;;;10.75;10.75;;;;;;;;6376482;22;8751;-75
2023/06/03 17:47:13;;;;;;;;;26.00;24.25;;;;;;;;6376179;22;8740;-74
2023/06/03 17:49:38;;;;;;;;;122.00;114.00;;;;;;;;6375974;22;8759;-76
2023/06/03 17:52:04;;;;;;;;;295.33;254.33;;;;;;;;6376406;22;8739;-75
2023/06/03 17:54:30;;;;;;;;;313.00;280.75;;;;;;;;6377218;22;8725;-75
2023/06/03 17:56:55;;;;;;;;;154.50;132.00;;;;;;;;6377100;22;8744;-75
2023/06/03 17:59:20;;;;;;;;;2292.50;1760.75;;;;;;;;6375266;22;8767;-75
2023/06/03 18:01:45;;;;;;;;;1027.50;823.25;;;;;;;;6375981;22;8748;-76
2023/06/03 18:04:12;;;;;;;;;698.33;605.00;;;;;;;;6375980;22;8740;-75
2023/06/03 18:06:37;;;;;;;;;51.00;41.75;;;;;;;;6376129;22;11494;-75
2023/06/03 18:09:02;;;;;;;;;1157.75;949.25;;;;;;;;6375497;22;11484;-76
2023/06/03 18:11:27;;;;;;;;;78.00;57.00;;;;;;;;6375879;22;9654;-75
2023/06/03 18:13:53;;;;;;;;;474.50;411.00;;;;;;;;6376342;22;8728;-75
2023/06/03 18:16:18;;;;;;;;;282.00;242.67;;;;;;;;6376130;22;8740;-74
2023/06/03 18:18:43;;;;;;;;;265.00;235.25;;;;;;;;6375883;22;8782;-75
2023/06/03 18:21:08;;;;;;;;;1029.75;796.25;;;;;;;;6375951;22;8778;-78
2023/06/03 18:23:33;;;;;;;;;241.75;215.25;;;;;;;;6375558;22;8794;-79
2023/06/03 18:25:59;;;;;;;;;154.67;132.33;;;;;;;;6375541;22;8724;-76
2023/06/03 18:28:24;;;;;;;;;211.67;198.00;;;;;;;;6375398;22;8744;-77
2023/06/03 18:30:49;;;;;;;;;72.25;59.25;;;;;;;;6375457;22;11435;-81
2023/06/03 18:33:15;;;;;;;;;231.67;208.00;;;;;;;;6375915;22;9771;-77
2023/06/03 18:35:40;;;;;;;;;22.75;21.00;;;;;;;;6375800;22;8731;-78
2023/06/03 18:38:06;;;;;;;;;117.00;106.00;;;;;;;;6376759;22;11428;-78
2023/06/03 18:40:31;;;;;;;;;31.50;28.00;;;;;;;;6376738;22;9539;-84
2023/06/03 18:42:57;;;;;;;;;40.25;33.75;;;;;;;;6376122;22;8760;-80
2023/06/03 18:45:22;;;;;;;;;73.25;64.50;;;;;;;;6375950;22;8740;-75
2023/06/03 18:47:47;;;;;;;;;10.75;8.75;;;;;;;;6376143;22;8774;-77
2023/06/03 18:50:13;;;;;;;;;8.25;8.25;;;;;;;;6376153;22;8731;-77
2023/06/03 18:52:38;;;;;;;;;6.75;6.75;;;;;;;;6375186;22;8952;-76
2023/06/03 18:55:04;;;;;;;;;12.00;12.00;;;;;;;;6375999;22;8736;-73
2023/06/03 18:57:29;;;;;;;;;14.25;10.50;;;;;;;;6375188;22;8739;-71
2023/06/03 18:59:54;;;;;;;;;7.00;7.00;;;;;;;;6375314;22;11175;-71
2023/06/03 19:02:20;;;;;;;;;9.00;8.25;;;;;;;;6375152;22;8767;-72
2023/06/03 19:04:45;;;;;;;;;11.50;9.50;;;;;;;;6375405;22;8764;-72
2023/06/03 19:07:10;;;;;;;;;7.25;6.75;;;;;;;;6375407;22;8759;-72
2023/06/03 19:09:36;;;;;;;;;10.00;8.50;;;;;;;;6375369;22;8763;-71
2023/06/03 19:12:01;;;;;;;;;9.75;8.00;;;;;;;;6375628;22;8748;-72
2023/06/03 19:14:27;;;;;;;;;8.25;7.50;;;;;;;;6375545;22;8775;-73
2023/06/03 19:16:52;;;;;;;;;9.50;8.50;;;;;;;;6375826;22;9934;-73
2023/06/03 19:19:17;;;;;;;;;8.50;7.50;;;;;;;;6375232;22;10855;-73
2023/06/03 19:21:43;;;;;;;;;8.00;8.00;;;;;;;;6376164;22;8756;-69
2023/06/03 19:24:08;;;;;;;;;11.50;11.50;;;;;;;;6374940;22;8752;-73
2023/06/03 19:26:34;;;;;;;;;9.75;8.75;;;;;;;;6375494;22;8743;-73
2023/06/03 19:28:59;;;;;;;;;10.25;7.75;;;;;;;;6376017;22;8870;-73
2023/06/03 19:31:29;;;;;;;;;15.50;14.50;;;;;;;;6375321;22;8748;-71
2023/06/03 19:33:54;;;;;;;;;13.25;13.25;;;;;;;;6375732;22;8716;-72
2023/06/03 19:36:20;;;;;;;;;7.00;6.50;;;;;;;;6375264;22;11111;-72
2023/06/03 19:38:45;;;;;;;;;17.25;16.00;;;;;;;;6375275;22;8756;-71
2023/06/03 19:41:10;;;;;;;;;18.75;15.75;;;;;;;;6375658;22;8789;-71
2023/06/03 19:43:35;;;;;;;;;55.50;43.00;;;;;;;;6375693;22;8764;-72
2023/06/03 19:46:01;;;;;;;;;45.00;36.00;;;;;;;;6375382;22;8755;-71
2023/06/03 19:48:26;;;;;;;;;46.25;39.00;;;;;;;;6374861;22;8768;-71
2023/06/03 19:50:52;;;;;;;;;16.75;16.00;;;;;;;;6375263;22;11450;-72
2023/06/03 19:53:18;;;;;;;;;40.50;32.50;;;;;;;;6374939;22;8712;-72